createdAt,value
2022-09-17T00:01:08.037Z,10.83
2022-09-17T00:03:35.724Z,10.82
2022-09-17T00:06:10.829Z,10.93
2022-09-17T00:08:40.235Z,10.84
2022-09-17T00:11:15.816Z,10.88
2022-09-17T00:13:43.709Z,10.82
2022-09-17T00:16:12.145Z,10.87
2022-09-17T00:18:41.773Z,10.87
2022-09-17T00:21:17.143Z,10.91
2022-09-17T00:23:44.317Z,10.93
2022-09-17T00:26:11.792Z,10.95
2022-09-17T00:28:38.863Z,10.96
2022-09-17T00:31:09.267Z,11.00
2022-09-17T00:33:37.980Z,11.02
2022-09-17T00:36:05.611Z,11.07
2022-09-17T00:38:33.006Z,11.15
2022-09-17T00:41:00.632Z,11.13
2022-09-17T00:43:42.787Z,11.08
2022-09-17T00:46:24.879Z,11.14
2022-09-17T00:48:54.779Z,11.15
2022-09-17T00:51:38.968Z,11.15
2022-09-17T00:54:08.969Z,11.21
2022-09-17T00:56:38.248Z,11.20
2022-09-17T00:59:05.723Z,11.23
2022-09-17T01:01:33.345Z,11.16
2022-09-17T01:04:00.441Z,11.24
2022-09-17T01:06:56.985Z,11.19
2022-09-17T01:09:29.811Z,11.15
2022-09-17T01:12:15.292Z,11.14
2022-09-17T01:14:42.270Z,11.19
2022-09-17T01:17:18.364Z,11.19
2022-09-17T01:19:57.505Z,11.22
2022-09-17T01:22:27.253Z,11.22
2022-09-17T01:25:18.651Z,11.19
2022-09-17T01:28:05.281Z,11.18
2022-09-17T01:30:44.992Z,11.18
2022-09-17T01:33:27.239Z,11.18
2022-09-17T01:36:06.804Z,11.24
2022-09-17T01:39:07.649Z,11.25
2022-09-17T01:41:54.778Z,11.25
2022-09-17T01:45:01.026Z,11.39
2022-09-17T01:47:44.233Z,11.33
2022-09-17T01:50:20.087Z,11.34
2022-09-17T01:52:48.916Z,11.33
2022-09-17T01:55:17.637Z,11.28
2022-09-17T01:57:53.396Z,11.27
2022-09-17T02:00:20.579Z,11.39
2022-09-17T02:02:59.675Z,11.40
2022-09-17T02:05:37.718Z,11.38
2022-09-17T02:08:21.305Z,11.33
2022-09-17T02:10:52.707Z,11.35
2022-09-17T02:13:28.469Z,11.32
2022-09-17T02:15:57.842Z,11.27
2022-09-17T02:18:27.749Z,11.27
2022-09-17T02:21:03.729Z,11.25
2022-09-17T02:23:34.925Z,11.31
2022-09-17T02:26:07.022Z,11.34
2022-09-17T02:28:41.861Z,11.32
2022-09-17T02:31:09.863Z,11.27
2022-09-17T02:33:38.302Z,11.24
2022-09-17T02:36:05.518Z,11.22
2022-09-17T02:38:32.751Z,11.22
2022-09-17T02:41:25.339Z,11.30
2022-09-17T02:44:21.284Z,11.28
2022-09-17T02:47:39.314Z,11.21
2022-09-17T02:50:14.827Z,11.25
2022-09-17T02:53:20.220Z,11.21
2022-09-17T02:56:25.793Z,11.38
2022-09-17T02:59:27.112Z,11.38
2022-09-17T03:02:02.982Z,11.32
2022-09-17T03:04:30.558Z,11.30
2022-09-17T03:06:59.570Z,11.31
2022-09-17T03:09:26.704Z,11.30
2022-09-17T03:11:53.844Z,11.28
2022-09-17T03:14:20.971Z,11.33
2022-09-17T03:16:48.144Z,11.37
2022-09-17T03:19:15.426Z,11.33
2022-09-17T03:21:42.545Z,11.36
2022-09-17T03:24:11.605Z,11.32
2022-09-17T03:26:39.136Z,11.38
2022-09-17T03:29:06.276Z,11.41
2022-09-17T03:31:33.425Z,11.39
2022-09-17T03:34:00.565Z,11.41
2022-09-17T03:36:28.414Z,11.37
2022-09-17T03:38:56.571Z,11.37
2022-09-17T03:41:24.390Z,11.37
2022-09-17T03:43:51.712Z,11.36
2022-09-17T03:46:19.482Z,11.38
2022-09-17T03:48:46.754Z,11.40
2022-09-17T03:51:13.907Z,11.43
2022-09-17T03:53:41.150Z,11.41
2022-09-17T03:56:08.259Z,11.41
2022-09-17T03:58:35.792Z,11.41
2022-09-17T04:01:04.158Z,11.46
2022-09-17T04:03:32.017Z,11.43
2022-09-17T04:05:59.755Z,11.40
2022-09-17T04:08:27.156Z,11.39
2022-09-17T04:10:54.641Z,11.41
2022-09-17T04:13:21.775Z,11.39
2022-09-17T04:15:49.034Z,11.39
2022-09-17T04:18:16.238Z,11.40
2022-09-17T04:20:43.546Z,11.37
2022-09-17T04:23:12.014Z,11.38
2022-09-17T04:25:39.486Z,11.39
2022-09-17T04:28:06.922Z,11.43
2022-09-17T04:30:34.042Z,11.47
2022-09-17T04:33:01.203Z,11.47
2022-09-17T04:35:28.693Z,11.51
2022-09-17T04:37:57.561Z,11.52
2022-09-17T04:40:25.998Z,11.52
2022-09-17T04:42:59.441Z,11.52
2022-09-17T04:45:26.727Z,11.63
2022-09-17T04:47:53.791Z,11.60
2022-09-17T04:50:21.629Z,11.64
2022-09-17T04:52:48.835Z,11.66
2022-09-17T04:55:16.312Z,11.64
2022-09-17T04:57:51.288Z,11.61
2022-09-17T05:00:19.636Z,11.59
2022-09-17T05:02:48.748Z,11.61
2022-09-17T05:05:16.858Z,11.59
2022-09-17T05:07:43.983Z,11.65
2022-09-17T05:10:12.149Z,11.64
2022-09-17T05:12:39.278Z,11.62
2022-09-17T05:15:07.828Z,11.65
2022-09-17T05:17:34.898Z,11.63
2022-09-17T05:20:02.147Z,11.62
2022-09-17T05:22:29.791Z,11.67
2022-09-17T05:24:57.191Z,11.65
2022-09-17T05:27:24.303Z,11.67
2022-09-17T05:29:51.396Z,11.78
2022-09-17T05:32:18.458Z,11.75
2022-09-17T05:34:45.677Z,11.68
2022-09-17T05:37:12.747Z,11.72
2022-09-17T05:39:39.811Z,11.71
2022-09-17T05:42:07.061Z,11.70
2022-09-17T05:44:34.174Z,11.72
2022-09-17T05:47:01.644Z,11.72
2022-09-17T05:49:28.790Z,11.72
2022-09-17T05:51:55.908Z,11.78
2022-09-17T05:54:23.265Z,11.79
2022-09-17T05:56:53.424Z,11.79
2022-09-17T05:59:20.494Z,11.84
2022-09-17T06:01:47.831Z,11.82
2022-09-17T06:04:17.795Z,11.83
2022-09-17T06:06:44.902Z,11.83
2022-09-17T06:09:12.429Z,11.90
2022-09-17T06:11:39.508Z,11.90
2022-09-17T06:14:06.623Z,11.87
2022-09-17T06:16:34.016Z,11.83
2022-09-17T06:19:01.278Z,11.87
2022-09-17T06:21:28.372Z,11.87
2022-09-17T06:23:55.656Z,11.92
2022-09-17T06:26:22.797Z,11.91
2022-09-17T06:28:50.024Z,11.88
2022-09-17T06:31:17.275Z,11.87
2022-09-17T06:33:44.409Z,11.97
2022-09-17T06:36:14.564Z,11.91
2022-09-17T06:38:42.376Z,11.99
2022-09-17T06:41:09.468Z,12.11
2022-09-17T06:43:36.588Z,12.12
2022-09-17T06:46:09.280Z,12.22
2022-09-17T06:48:37.322Z,12.11
2022-09-17T06:51:07.268Z,12.07
2022-09-17T06:53:34.500Z,12.06
2022-09-17T06:56:06.234Z,12.05
2022-09-17T06:58:34.947Z,12.06
2022-09-17T07:01:03.100Z,12.02
2022-09-17T07:03:31.426Z,12.07
2022-09-17T07:05:58.592Z,12.02
2022-09-17T07:08:26.176Z,12.03
2022-09-17T07:10:57.409Z,11.99
2022-09-17T07:13:25.088Z,12.08
2022-09-17T07:15:54.103Z,12.08
2022-09-17T07:18:21.323Z,12.09
2022-09-17T07:20:56.078Z,12.01
2022-09-17T07:23:24.452Z,12.01
2022-09-17T07:25:53.306Z,12.02
2022-09-17T07:28:20.980Z,12.06
2022-09-17T07:30:48.523Z,12.15
2022-09-17T07:33:24.635Z,12.05
2022-09-17T07:36:02.755Z,12.08
2022-09-17T07:38:31.081Z,12.09
2022-09-17T07:41:03.221Z,12.11
2022-09-17T07:43:32.263Z,12.30
2022-09-17T07:46:01.593Z,12.29
2022-09-17T07:48:29.073Z,12.35
2022-09-17T07:50:56.647Z,12.29
2022-09-17T07:53:23.767Z,12.29
2022-09-17T07:55:54.931Z,12.30
2022-09-17T07:58:23.234Z,12.32
2022-09-17T08:00:50.766Z,12.25
2022-09-17T08:03:17.851Z,12.30
2022-09-17T08:05:44.999Z,12.36
2022-09-17T08:08:12.081Z,12.33
2022-09-17T08:10:39.175Z,12.36
2022-09-17T08:13:06.243Z,12.48
2022-09-17T08:15:33.325Z,12.42
2022-09-17T08:18:00.407Z,12.43
2022-09-17T08:20:27.572Z,12.43
2022-09-17T08:23:01.151Z,12.54
2022-09-17T08:25:28.320Z,12.52
2022-09-17T08:27:56.511Z,12.55
2022-09-17T08:30:23.727Z,12.57
2022-09-17T08:32:50.867Z,12.71
2022-09-17T08:35:17.963Z,12.66
2022-09-17T08:37:46.077Z,12.72
2022-09-17T08:40:16.435Z,12.87
2022-09-17T08:42:57.275Z,12.96
2022-09-17T08:45:24.373Z,13.01
2022-09-17T08:47:52.501Z,13.08
2022-09-17T08:50:19.629Z,13.11
2022-09-17T08:53:02.707Z,13.16
2022-09-17T08:55:58.331Z,13.36
2022-09-17T08:58:37.285Z,13.35
2022-09-17T09:01:28.018Z,13.27
2022-09-17T09:04:16.431Z,13.29
2022-09-17T09:06:48.045Z,13.36
2022-09-17T09:09:16.997Z,13.43
2022-09-17T09:11:44.632Z,13.48
2022-09-17T09:14:32.383Z,13.54
2022-09-17T09:17:01.051Z,13.49
2022-09-17T09:19:32.038Z,13.55
2022-09-17T09:22:04.824Z,13.72
2022-09-17T09:24:40.242Z,13.66
2022-09-17T09:27:18.514Z,13.64
2022-09-17T09:30:01.996Z,13.59
2022-09-17T09:32:37.608Z,13.61
2022-09-17T09:35:36.702Z,13.61
2022-09-17T09:38:09.630Z,13.70
2022-09-17T09:40:55.007Z,13.72
2022-09-17T09:44:02.653Z,13.66
2022-09-17T09:46:50.929Z,13.74
2022-09-17T09:49:42.231Z,13.70
2022-09-17T09:52:19.786Z,13.71
2022-09-17T09:55:04.157Z,13.53
2022-09-17T09:57:39.836Z,13.52
2022-09-17T10:00:26.919Z,13.55
2022-09-17T10:03:06.938Z,13.48
2022-09-17T10:05:34.069Z,13.57
2022-09-17T10:08:11.585Z,13.65
2022-09-17T10:11:04.084Z,13.69
2022-09-17T10:13:33.710Z,13.76
2022-09-17T10:16:19.456Z,13.77
2022-09-17T10:18:48.367Z,13.88
2022-09-17T10:21:42.474Z,13.92
2022-09-17T10:24:23.105Z,14.05
2022-09-17T10:26:50.584Z,14.06
2022-09-17T10:29:20.030Z,14.04
2022-09-17T10:31:55.270Z,14.09
2022-09-17T10:34:27.498Z,14.16
2022-09-17T10:36:56.624Z,14.08
2022-09-17T10:39:26.524Z,14.03
2022-09-17T10:41:57.780Z,13.77
2022-09-17T10:44:27.078Z,13.51
2022-09-17T10:46:54.690Z,13.55
2022-09-17T10:49:36.261Z,13.44
2022-09-17T10:52:26.769Z,13.48
2022-09-17T10:55:24.498Z,13.58
2022-09-17T10:58:07.271Z,13.70
2022-09-17T11:00:40.187Z,13.76
2022-09-17T11:03:40.344Z,13.86
2022-09-17T11:06:31.338Z,14.06
2022-09-17T11:09:20.919Z,14.15
2022-09-17T11:11:56.730Z,14.27
2022-09-17T11:14:53.697Z,14.49
2022-09-17T11:17:43.623Z,14.63
2022-09-17T11:20:26.195Z,14.83
2022-09-17T11:23:25.435Z,14.86
2022-09-17T11:26:01.380Z,14.76
2022-09-17T11:28:40.585Z,14.84
2022-09-17T11:31:12.182Z,15.02
2022-09-17T11:34:28.495Z,15.37
2022-09-17T11:37:17.541Z,15.52
2022-09-17T11:39:51.505Z,15.35
2022-09-17T11:42:27.694Z,15.28
2022-09-17T11:45:03.454Z,15.13
2022-09-17T11:47:37.750Z,14.99
2022-09-17T11:50:11.243Z,15.06
2022-09-17T11:52:59.653Z,15.00
2022-09-17T11:55:32.859Z,14.92
2022-09-17T11:58:01.211Z,15.08
2022-09-17T12:00:29.448Z,15.26
2022-09-17T12:03:30.899Z,15.39
2022-09-17T12:06:01.096Z,15.55
2022-09-17T12:08:37.606Z,15.60
2022-09-17T12:11:36.451Z,15.57
2022-09-17T12:14:16.195Z,15.65
2022-09-17T12:16:45.751Z,15.75
2022-09-17T12:19:18.556Z,15.52
2022-09-17T12:21:52.728Z,15.28
2022-09-17T12:24:29.594Z,14.98
2022-09-17T12:27:33.959Z,14.76
2022-09-17T12:30:22.432Z,14.82
2022-09-17T12:33:12.506Z,15.00
2022-09-17T12:36:06.044Z,15.45
2022-09-17T12:38:33.157Z,15.84
2022-09-17T12:41:07.018Z,16.12
2022-09-17T12:43:39.960Z,16.01
2022-09-17T12:46:20.144Z,15.96
2022-09-17T12:49:19.342Z,15.86
2022-09-17T12:51:57.604Z,16.00
2022-09-17T12:54:24.615Z,16.45
2022-09-17T12:57:24.610Z,17.02
2022-09-17T13:00:07.729Z,16.68
2022-09-17T13:03:02.650Z,16.30
2022-09-17T13:05:50.665Z,15.93
2022-09-17T13:08:26.615Z,15.71
2022-09-17T13:11:10.725Z,15.48
2022-09-17T13:13:47.447Z,15.54
2022-09-17T13:16:20.767Z,15.74
2022-09-17T13:19:19.097Z,16.07
2022-09-17T13:21:55.562Z,16.50
2022-09-17T13:24:25.232Z,16.70
2022-09-17T13:26:54.025Z,16.91
2022-09-17T13:29:48.911Z,16.89
2022-09-17T13:32:34.591Z,16.93
2022-09-17T13:35:13.615Z,17.24
2022-09-17T13:37:52.638Z,17.21
2022-09-17T13:40:29.953Z,17.30
2022-09-17T13:42:59.516Z,17.43
2022-09-17T13:45:26.704Z,17.57
2022-09-17T13:48:05.591Z,17.78
2022-09-17T13:50:40.775Z,18.02
2022-09-17T13:53:14.258Z,18.12
2022-09-17T13:55:51.222Z,18.14
2022-09-17T13:58:18.606Z,18.35
2022-09-17T14:00:54.578Z,18.55
2022-09-17T14:03:46.478Z,18.43
2022-09-17T14:06:18.665Z,18.00
2022-09-17T14:08:46.467Z,17.41
2022-09-17T14:11:22.652Z,17.15
2022-09-17T14:13:52.778Z,17.21
2022-09-17T14:16:25.688Z,17.24
2022-09-17T14:19:21.964Z,17.25
2022-09-17T14:22:00.506Z,17.36
2022-09-17T14:24:46.073Z,17.65
2022-09-17T14:27:27.755Z,17.93
2022-09-17T14:29:54.768Z,17.76
2022-09-17T14:32:46.678Z,17.78
2022-09-17T14:35:19.961Z,17.39
2022-09-17T14:37:53.720Z,16.77
2022-09-17T14:40:21.749Z,16.39
2022-09-17T14:42:51.887Z,16.48
2022-09-17T14:45:38.312Z,16.15
2022-09-17T14:48:27.463Z,15.89
2022-09-17T14:51:19.148Z,15.62
2022-09-17T14:53:47.602Z,15.39
2022-09-17T14:56:19.847Z,15.46
2022-09-17T14:58:49.209Z,15.63
2022-09-17T15:01:24.680Z,15.61
2022-09-17T15:04:13.585Z,15.40
2022-09-17T15:06:41.601Z,15.41
2022-09-17T15:09:34.674Z,15.60
2022-09-17T15:12:02.213Z,15.80
2022-09-17T15:14:36.311Z,16.11
2022-09-17T15:17:04.997Z,16.35
2022-09-17T15:19:35.945Z,16.36
2022-09-17T15:22:08.433Z,16.49
2022-09-17T15:24:41.361Z,16.45
2022-09-17T15:27:29.266Z,16.71
2022-09-17T15:30:00.656Z,16.58
2022-09-17T15:32:27.777Z,16.62
2022-09-17T15:35:13.397Z,16.83
2022-09-17T15:38:11.473Z,16.90
2022-09-17T15:40:41.044Z,16.74
2022-09-17T15:43:18.980Z,16.82
2022-09-17T15:45:46.273Z,17.02
2022-09-17T15:48:28.567Z,16.61
2022-09-17T15:50:57.720Z,16.48
2022-09-17T15:53:26.750Z,16.13
2022-09-17T15:56:17.069Z,15.88
2022-09-17T15:58:47.090Z,15.55
2022-09-17T16:01:14.138Z,15.43
2022-09-17T16:03:41.641Z,15.53
2022-09-17T16:06:25.291Z,15.34
2022-09-17T16:08:55.899Z,15.43
2022-09-17T16:11:24.783Z,15.08
2022-09-17T16:13:53.645Z,15.14
2022-09-17T16:16:22.662Z,14.92
2022-09-17T16:18:50.505Z,14.71
2022-09-17T16:21:18.933Z,14.49
2022-09-17T16:23:46.400Z,14.31
2022-09-17T16:26:21.059Z,14.21
2022-09-17T16:28:49.908Z,14.07
2022-09-17T16:31:17.139Z,13.86
2022-09-17T16:33:44.254Z,13.79
2022-09-17T16:36:11.484Z,13.67
2022-09-17T16:38:38.905Z,13.49
2022-09-17T16:41:06.132Z,13.45
2022-09-17T16:43:34.518Z,13.22
2022-09-17T16:46:06.067Z,13.05
2022-09-17T16:48:33.860Z,13.06
2022-09-17T16:51:03.889Z,12.89
2022-09-17T16:53:31.041Z,12.78
2022-09-17T16:55:58.166Z,12.67
2022-09-17T16:58:25.608Z,12.48
2022-09-17T17:00:52.775Z,12.52
2022-09-17T17:03:19.941Z,12.34
2022-09-17T17:05:47.117Z,12.25
2022-09-17T17:08:14.647Z,12.15
2022-09-17T17:10:41.915Z,12.20
2022-09-17T17:13:09.004Z,12.15
2022-09-17T17:15:36.067Z,12.14
2022-09-17T17:18:03.242Z,12.04
2022-09-17T17:20:31.966Z,12.03
2022-09-17T17:22:59.048Z,11.98
2022-09-17T17:25:27.027Z,11.89
2022-09-17T17:27:54.128Z,11.95
2022-09-17T17:30:22.032Z,11.94
2022-09-17T17:32:50.810Z,11.87
2022-09-17T17:35:18.782Z,11.98
2022-09-17T17:37:46.182Z,11.85
2022-09-17T17:40:13.346Z,11.80
2022-09-17T17:42:43.829Z,11.76
2022-09-17T17:45:11.218Z,11.72
2022-09-17T17:47:38.341Z,11.69
2022-09-17T17:50:05.785Z,11.69
2022-09-17T17:52:32.937Z,11.59
2022-09-17T17:55:00.023Z,11.56
2022-09-17T17:57:27.136Z,11.64
2022-09-17T17:59:54.226Z,11.58
2022-09-17T18:02:21.441Z,11.52
2022-09-17T18:04:48.587Z,11.55
2022-09-17T18:07:15.628Z,11.37
2022-09-17T18:09:43.043Z,11.33
2022-09-17T18:12:10.120Z,11.27
2022-09-17T18:14:37.258Z,11.44
2022-09-17T18:17:04.429Z,11.34
2022-09-17T18:19:31.475Z,11.21
2022-09-17T18:21:58.575Z,11.09
2022-09-17T18:24:25.936Z,11.00
2022-09-17T18:26:52.983Z,11.04
2022-09-17T18:29:20.059Z,11.01
2022-09-17T18:31:47.242Z,11.18
2022-09-17T18:34:15.869Z,11.15
2022-09-17T18:36:47.579Z,11.10
2022-09-17T18:39:57.355Z,11.03
2022-09-17T18:42:05.042Z,10.90
2022-09-17T18:44:32.140Z,10.78
2022-09-17T18:46:59.286Z,10.76
2022-09-17T18:49:26.377Z,10.70
2022-09-17T18:51:53.555Z,10.67
2022-09-17T18:54:20.672Z,10.61
2022-09-17T18:56:47.752Z,10.64
2022-09-17T18:59:14.824Z,10.63
2022-09-17T19:01:42.050Z,10.65
2022-09-17T19:04:10.014Z,10.68
2022-09-17T19:06:37.125Z,10.55
2022-09-17T19:09:04.966Z,10.52
2022-09-17T19:11:32.144Z,10.51
2022-09-17T19:13:59.396Z,10.50
2022-09-17T19:16:26.527Z,10.50
2022-09-17T19:18:53.765Z,10.48
2022-09-17T19:21:21.835Z,10.42
2022-09-17T19:23:50.810Z,10.42
2022-09-17T19:26:22.784Z,10.48
2022-09-17T19:28:54.311Z,10.45
2022-09-17T19:31:21.753Z,10.40
2022-09-17T19:33:48.948Z,10.39
2022-09-17T19:36:17.635Z,10.43
2022-09-17T19:38:45.839Z,10.45
2022-09-17T19:41:15.410Z,10.42
2022-09-17T19:43:42.675Z,10.42
2022-09-17T19:46:15.251Z,10.42
2022-09-17T19:48:50.408Z,10.42
2022-09-17T19:51:17.922Z,10.47
2022-09-17T19:53:45.578Z,10.51
2022-09-17T19:56:18.068Z,10.54
2022-09-17T19:58:45.634Z,10.53
2022-09-17T20:01:13.132Z,10.53
2022-09-17T20:03:41.681Z,10.53
2022-09-17T20:06:10.990Z,10.54
2022-09-17T20:08:46.802Z,10.54
2022-09-17T20:11:14.930Z,10.61
2022-09-17T20:13:42.241Z,10.59
2022-09-17T20:16:15.018Z,10.63
2022-09-17T20:18:43.810Z,10.61
2022-09-17T20:21:25.417Z,10.52
2022-09-17T20:23:52.501Z,10.55
2022-09-17T20:26:19.692Z,10.43
2022-09-17T20:28:48.368Z,10.41
2022-09-17T20:31:18.698Z,10.33
2022-09-17T20:33:46.412Z,10.25
2022-09-17T20:36:15.769Z,10.25
2022-09-17T20:41:32.104Z,10.29
2022-09-17T20:43:59.198Z,10.28
2022-09-17T20:46:29.186Z,10.29
2022-09-17T20:48:57.540Z,10.36
2022-09-17T20:51:27.180Z,10.35
2022-09-17T20:53:54.283Z,10.41
2022-09-17T20:56:26.629Z,10.35
2022-09-17T20:59:17.697Z,10.36
2022-09-17T21:01:46.587Z,10.38
2022-09-17T21:04:16.419Z,10.48
2022-09-17T21:06:44.050Z,10.43
2022-09-17T21:09:15.503Z,10.37
2022-09-17T21:11:47.000Z,10.40
2022-09-17T21:14:15.761Z,10.40
2022-09-17T21:16:43.214Z,10.46
2022-09-17T21:19:11.863Z,10.46
2022-09-17T21:21:38.911Z,10.39
2022-09-17T21:24:07.073Z,10.42
2022-09-17T21:26:34.518Z,10.46
2022-09-17T21:29:02.013Z,10.46
2022-09-17T21:31:33.660Z,10.44
2022-09-17T21:34:04.891Z,10.43
2022-09-17T21:36:34.449Z,10.46
2022-09-17T21:39:15.854Z,10.47
2022-09-17T21:41:43.717Z,10.46
2022-09-17T21:44:11.658Z,10.45
2022-09-17T21:46:39.205Z,10.48
2022-09-17T21:49:06.439Z,10.51
2022-09-17T21:51:38.527Z,10.53
2022-09-17T21:54:10.709Z,10.53
2022-09-17T21:56:38.175Z,10.60
2022-09-17T21:59:07.421Z,10.61
2022-09-17T22:01:39.676Z,10.63
2022-09-17T22:04:09.020Z,10.69
2022-09-17T22:06:36.816Z,10.63
2022-09-17T22:09:05.429Z,10.61
2022-09-17T22:11:34.400Z,10.72
2022-09-17T22:14:12.994Z,10.78
2022-09-17T22:16:42.672Z,10.76
2022-09-17T22:19:12.068Z,10.77
2022-09-17T22:21:41.407Z,10.73
2022-09-17T22:24:09.966Z,10.69
2022-09-17T22:26:39.735Z,10.59
2022-09-17T22:29:09.436Z,10.58
2022-09-17T22:31:36.780Z,10.56
2022-09-17T22:34:08.046Z,10.60
2022-09-17T22:36:35.352Z,10.57
2022-09-17T22:39:02.809Z,10.56
2022-09-17T22:41:31.365Z,10.56
2022-09-17T22:44:03.519Z,10.61
2022-09-17T22:46:32.957Z,10.69
2022-09-17T22:49:00.966Z,10.63
2022-09-17T22:51:29.292Z,10.74
2022-09-17T22:53:57.053Z,10.73
2022-09-17T22:56:25.043Z,10.68
2022-09-17T22:58:52.111Z,10.70
2022-09-17T23:01:21.524Z,10.67
2022-09-17T23:03:50.674Z,10.70
2022-09-17T23:06:20.376Z,10.67
2022-09-17T23:08:48.065Z,10.69
2022-09-17T23:11:20.375Z,10.73
2022-09-17T23:13:48.172Z,10.73
2022-09-17T23:16:15.522Z,10.74
2022-09-17T23:18:43.053Z,10.76
2022-09-17T23:21:18.439Z,10.72
2022-09-17T23:23:47.976Z,10.70
2022-09-17T23:26:22.877Z,10.75
2022-09-17T23:28:50.055Z,10.80
2022-09-17T23:31:19.353Z,10.92
2022-09-17T23:33:47.397Z,10.87
2022-09-17T23:36:17.599Z,10.84
2022-09-17T23:38:45.374Z,10.81
2022-09-17T23:41:17.075Z,10.85
2022-09-17T23:43:46.499Z,10.83
2022-09-17T23:46:14.062Z,10.82
2022-09-17T23:48:41.388Z,10.79
2022-09-17T23:51:08.882Z,10.82
2022-09-17T23:53:36.396Z,11.00
2022-09-17T23:56:05.137Z,11.07
2022-09-17T23:58:32.985Z,11.06
